Gregorytown, New York
Current Conditions -  °F | °C
As of 8:15 AM on Friday 28 Nov 2014 (Local Time) from KMSV Reporting Station
Overcast Overcast  
Wind Chill: 15°   Ceiling: 3000
Heat Index: 25°   Visibility: 10mi
Dew Point: 19°   Wind: 10mph
Humidity: 80%   Direction: 310°NW
Pressure: 30.11"   Gusts: NA
Location:  42.0755°N, 75.0491°W
Report Text: KMSV 281315Z AUTO 31009KT 10SM OVC030 M04/M07 A3011 RMK AO1
Loading
Personal Weather Stations






























Interactive Weather Map New forecast layout! Learn more

10-Day Weather Forecast

Advertisements
Track Severe Weather on mobile